createdAt,value
2023-03-07T00:01:07.605Z,97195.06
2023-03-07T00:03:34.562Z,97199.75
2023-03-07T00:06:02.299Z,97196.72
2023-03-07T00:08:31.329Z,97197.22
2023-03-07T00:11:05.020Z,97194.00
2023-03-07T00:13:32.567Z,97196.19
2023-03-07T00:16:07.825Z,97185.47
2023-03-07T00:18:34.709Z,97195.41
2023-03-07T00:21:03.470Z,97204.13
2023-03-07T00:23:30.004Z,97193.97
2023-03-07T00:26:01.476Z,97186.53
2023-03-07T00:31:04.400Z,97184.50
2023-03-07T00:33:31.404Z,97182.25
2023-03-07T00:36:00.585Z,97179.91
2023-03-07T00:38:29.418Z,97177.56
2023-03-07T00:41:00.427Z,97180.75
2023-03-07T00:43:28.051Z,97180.06
2023-03-07T00:45:55.672Z,97177.78
2023-03-07T00:48:23.476Z,97177.63
2023-03-07T00:50:51.025Z,97173.03
2023-03-07T00:53:18.335Z,97167.69
2023-03-07T00:56:24.145Z,97155.34
2023-03-07T00:58:51.646Z,97156.88
2023-03-07T01:01:23.534Z,97155.84
2023-03-07T01:03:53.873Z,97148.34
2023-03-07T01:06:23.304Z,97151.41
2023-03-07T01:08:49.921Z,97149.94
2023-03-07T01:11:16.788Z,97142.16
2023-03-07T01:16:16.944Z,97143.31
2023-03-07T01:18:44.847Z,97149.22
2023-03-07T01:21:20.880Z,97143.94
2023-03-07T01:23:47.715Z,97144.81
2023-03-07T01:26:16.400Z,97140.13
2023-03-07T01:28:43.333Z,97146.94
2023-03-07T01:31:10.325Z,97148.13
2023-03-07T01:33:37.423Z,97140.75
2023-03-07T01:36:05.425Z,97138.31
2023-03-07T01:38:34.221Z,97136.00
2023-03-07T01:41:02.535Z,97139.91
2023-03-07T01:43:32.375Z,97136.00
2023-03-07T01:46:33.405Z,97124.41
2023-03-07T01:49:05.223Z,97126.50
2023-03-07T01:51:34.797Z,97124.69
2023-03-07T01:54:02.468Z,97123.97
2023-03-07T01:56:30.411Z,97122.09
2023-03-07T01:58:57.542Z,97123.97
2023-03-07T02:01:26.033Z,97115.16
2023-03-07T02:03:57.590Z,97112.88
2023-03-07T02:06:25.227Z,97111.19
2023-03-07T02:11:26.893Z,97111.19
2023-03-07T02:13:53.547Z,97102.91
2023-03-07T02:16:20.673Z,97106.88
2023-03-07T02:18:50.139Z,97097.53
2023-03-07T02:21:19.226Z,97094.53
2023-03-07T02:23:55.748Z,97100.59
2023-03-07T02:26:31.460Z,97103.69
2023-03-07T02:28:59.615Z,97103.28
2023-03-07T02:31:26.841Z,97101.00
2023-03-07T02:33:53.524Z,97097.94
2023-03-07T02:36:28.190Z,97091.63
2023-03-07T02:41:36.269Z,97096.53
2023-03-07T02:44:02.907Z,97095.09
2023-03-07T02:46:29.536Z,97088.84
2023-03-07T02:48:56.170Z,97084.56
2023-03-07T02:51:22.877Z,97092.00
2023-03-07T02:53:49.451Z,97078.88
2023-03-07T02:56:16.066Z,97076.34
2023-03-07T02:58:42.621Z,97077.00
2023-03-07T03:01:09.215Z,97066.97
2023-03-07T03:03:35.945Z,97063.97
2023-03-07T03:06:02.599Z,97059.69
2023-03-07T03:08:29.135Z,97056.72
2023-03-07T03:10:55.880Z,97059.69
2023-03-07T03:13:22.822Z,97048.63
2023-03-07T03:15:49.521Z,97056.72
2023-03-07T03:18:16.102Z,97064.38
2023-03-07T03:20:42.795Z,97057.00
2023-03-07T03:23:09.384Z,97060.34
2023-03-07T03:25:36.094Z,97053.72
2023-03-07T03:28:02.684Z,97057.28
2023-03-07T03:30:32.451Z,97055.28
2023-03-07T03:32:59.101Z,97044.25
2023-03-07T03:35:25.809Z,97050.47
2023-03-07T03:37:52.385Z,97051.59
2023-03-07T03:40:19.055Z,97046.47
2023-03-07T03:42:46.055Z,97051.16
2023-03-07T03:45:15.075Z,97049.44
2023-03-07T03:47:41.968Z,97049.97
2023-03-07T03:50:09.677Z,97052.75
2023-03-07T03:52:36.741Z,97043.41
2023-03-07T03:55:03.981Z,97047.47
2023-03-07T03:57:30.567Z,97046.63
2023-03-07T03:59:57.679Z,97039.94
2023-03-07T04:02:24.998Z,97038.03
2023-03-07T04:04:51.670Z,97030.19
2023-03-07T04:07:18.241Z,97037.50
2023-03-07T04:09:44.832Z,97039.66
2023-03-07T04:12:11.597Z,97033.44
2023-03-07T04:14:38.145Z,97040.94
2023-03-07T04:17:04.737Z,97026.34
2023-03-07T04:19:31.284Z,97028.56
2023-03-07T04:21:57.829Z,97029.44
2023-03-07T04:24:24.388Z,97023.75
2023-03-07T04:26:50.947Z,97026.50
2023-03-07T04:29:17.528Z,97014.53
2023-03-07T04:31:44.189Z,97025.16
2023-03-07T04:34:10.850Z,97021.88
2023-03-07T04:36:37.707Z,97023.38
2023-03-07T04:39:04.374Z,97026.56
2023-03-07T04:41:30.954Z,97024.78
2023-03-07T04:43:57.623Z,97020.59
2023-03-07T04:46:24.195Z,97016.56
2023-03-07T04:48:50.734Z,97008.50
2023-03-07T04:51:17.317Z,97007.00
2023-03-07T04:53:44.163Z,97003.38
2023-03-07T04:56:11.165Z,97003.81
2023-03-07T04:58:38.202Z,97006.44
2023-03-07T05:01:05.729Z,96992.59
2023-03-07T05:03:33.538Z,96996.44
2023-03-07T05:06:08.690Z,96994.94
2023-03-07T05:08:35.660Z,96993.31
2023-03-07T05:11:02.341Z,96993.44
2023-03-07T05:13:28.959Z,96999.63
2023-03-07T05:15:57.565Z,96996.63
2023-03-07T05:18:24.334Z,96995.72
2023-03-07T05:23:29.109Z,96991.72
2023-03-07T05:25:55.770Z,96992.28
2023-03-07T05:28:22.341Z,96981.78
2023-03-07T05:30:49.651Z,96979.31
2023-03-07T05:33:16.273Z,96977.53
2023-03-07T05:35:43.107Z,96970.72
2023-03-07T05:38:10.031Z,96974.69
2023-03-07T05:40:36.633Z,96978.16
2023-03-07T05:43:03.814Z,96981.78
2023-03-07T05:45:30.432Z,96982.97
2023-03-07T05:47:57.002Z,96985.44
2023-03-07T05:50:24.033Z,96976.09
2023-03-07T05:52:50.668Z,96969.00
2023-03-07T05:55:17.248Z,96977.94
2023-03-07T05:57:43.790Z,96974.81
2023-03-07T06:02:49.544Z,96966.34
2023-03-07T06:05:16.283Z,96968.28
2023-03-07T06:10:21.387Z,96972.31
2023-03-07T06:12:52.087Z,96966.81
2023-03-07T06:15:19.330Z,96965.34
2023-03-07T06:17:46.048Z,96959.56
2023-03-07T06:20:13.297Z,96957.22
2023-03-07T06:25:14.050Z,96949.41
2023-03-07T06:27:40.679Z,96955.28
2023-03-07T06:30:09.025Z,96951.81
2023-03-07T06:32:35.862Z,96954.66
2023-03-07T06:35:02.472Z,96960.50
2023-03-07T06:37:29.122Z,96956.16
2023-03-07T06:39:56.067Z,96954.66
2023-03-07T06:42:22.686Z,96958.28
2023-03-07T06:44:49.321Z,96944.31
2023-03-07T06:47:15.910Z,96956.38
2023-03-07T06:49:42.434Z,96959.09
2023-03-07T06:54:40.305Z,96958.78
2023-03-07T06:57:06.885Z,96956.34
2023-03-07T06:59:33.838Z,96961.06
2023-03-07T07:02:03.443Z,96961.50
2023-03-07T07:04:30.388Z,96977.91
2023-03-07T07:06:56.997Z,96970.03
2023-03-07T07:09:23.680Z,96965.97
2023-03-07T07:11:50.239Z,96958.31
2023-03-07T07:14:16.990Z,96963.94
2023-03-07T07:16:43.635Z,96958.94
2023-03-07T07:19:10.347Z,96955.38
2023-03-07T07:21:36.969Z,96964.38
2023-03-07T07:24:04.943Z,96959.75
2023-03-07T07:26:31.534Z,96956.69
2023-03-07T07:28:58.119Z,96954.78
2023-03-07T07:31:24.827Z,96962.63
2023-03-07T07:33:51.448Z,96955.63
2023-03-07T07:36:18.026Z,96953.88
2023-03-07T07:38:44.911Z,96951.97
2023-03-07T07:41:11.579Z,96960.63
2023-03-07T07:43:38.225Z,96952.13
2023-03-07T07:46:05.383Z,96951.84
2023-03-07T07:48:32.305Z,96954.53
2023-03-07T07:51:02.862Z,96951.59
2023-03-07T07:53:29.800Z,96957.41
2023-03-07T07:55:56.866Z,96955.16
2023-03-07T07:58:23.561Z,96960.94
2023-03-07T08:00:50.172Z,96956.34
2023-03-07T08:03:16.787Z,96956.34
2023-03-07T08:05:48.647Z,96951.75
2023-03-07T08:08:16.773Z,96950.16
2023-03-07T08:10:45.650Z,96957.19
2023-03-07T08:13:17.577Z,96948.03
2023-03-07T08:15:44.220Z,96947.25
2023-03-07T08:18:11.185Z,96945.44
2023-03-07T08:20:39.033Z,96945.81
2023-03-07T08:23:05.697Z,96946.19
2023-03-07T08:25:32.397Z,96947.47
2023-03-07T08:27:59.221Z,96949.53
2023-03-07T08:30:28.467Z,96943.78
2023-03-07T08:32:56.242Z,96943.06
2023-03-07T08:35:23.959Z,96946.63
2023-03-07T08:37:54.940Z,96943.94
2023-03-07T08:40:22.146Z,96951.72
2023-03-07T08:42:49.121Z,96940.13
2023-03-07T08:45:15.948Z,96942.22
2023-03-07T08:47:42.777Z,96941.53
2023-03-07T08:50:09.927Z,96929.47
2023-03-07T08:52:36.510Z,96928.06
2023-03-07T08:55:03.532Z,96931.13
2023-03-07T08:57:30.226Z,96922.00
2023-03-07T08:59:56.829Z,96922.09
2023-03-07T09:02:23.377Z,96913.66
2023-03-07T09:04:50.078Z,96907.59
2023-03-07T09:07:16.700Z,96913.13
2023-03-07T09:09:43.238Z,96909.41
2023-03-07T09:14:41.274Z,96918.69
2023-03-07T09:17:07.876Z,96924.56
2023-03-07T09:19:35.349Z,96919.50
2023-03-07T09:22:02.080Z,96908.53
2023-03-07T09:24:28.689Z,96909.31
2023-03-07T09:26:55.308Z,96897.78
2023-03-07T09:29:21.954Z,96898.59
2023-03-07T09:31:49.035Z,96890.94
2023-03-07T09:34:16.069Z,96897.28
2023-03-07T09:36:42.658Z,96898.81
2023-03-07T09:39:14.415Z,96901.22
2023-03-07T09:42:02.603Z,96889.59
2023-03-07T09:44:55.333Z,96895.03
2023-03-07T09:47:40.438Z,96896.19
2023-03-07T09:50:13.912Z,96898.06
2023-03-07T09:52:41.907Z,96885.50
2023-03-07T09:55:28.628Z,96898.53
2023-03-07T09:58:00.943Z,96904.31
2023-03-07T10:00:33.410Z,96900.41
2023-03-07T10:03:30.136Z,96891.47
2023-03-07T10:08:34.370Z,96891.34
2023-03-07T10:11:23.254Z,96892.19
2023-03-07T10:14:13.150Z,96894.88
2023-03-07T10:17:13.698Z,96903.72
2023-03-07T10:20:08.918Z,96892.75
2023-03-07T10:22:59.462Z,96885.75
2023-03-07T10:25:47.083Z,96888.97
2023-03-07T10:28:24.258Z,96892.22
2023-03-07T10:30:54.035Z,96886.44
2023-03-07T10:33:21.253Z,96875.47
2023-03-07T10:35:54.449Z,96876.16
2023-03-07T10:38:48.125Z,96885.47
2023-03-07T10:41:17.473Z,96871.91
2023-03-07T10:43:45.789Z,96868.09
2023-03-07T10:48:54.787Z,96869.72
2023-03-07T10:51:30.089Z,96866.09
2023-03-07T10:53:57.711Z,96862.94
2023-03-07T10:56:24.439Z,96860.97
2023-03-07T11:01:54.929Z,96857.47
2023-03-07T11:04:23.475Z,96854.34
2023-03-07T11:06:53.982Z,96858.16
2023-03-07T11:09:31.885Z,96865.19
2023-03-07T11:12:06.145Z,96860.81
2023-03-07T11:14:49.368Z,96859.34
2023-03-07T11:17:22.199Z,96848.31
2023-03-07T11:19:53.275Z,96853.69
2023-03-07T11:22:21.357Z,96851.31
2023-03-07T11:24:58.843Z,96845.00
2023-03-07T11:27:47.819Z,96839.66
2023-03-07T11:30:20.547Z,96839.69
2023-03-07T11:32:53.689Z,96837.38
2023-03-07T11:35:31.101Z,96835.03
2023-03-07T11:38:14.078Z,96831.94
2023-03-07T11:40:51.426Z,96835.41
2023-03-07T11:43:23.342Z,96833.47
2023-03-07T11:46:00.897Z,96833.47
2023-03-07T11:48:52.439Z,96827.69
2023-03-07T11:51:35.549Z,96831.94
2023-03-07T11:54:29.555Z,96834.66
2023-03-07T11:57:03.660Z,96831.25
2023-03-07T11:59:44.533Z,96828.56
2023-03-07T12:02:34.104Z,96836.19
2023-03-07T12:05:11.365Z,96825.72
2023-03-07T12:08:07.830Z,96825.34
2023-03-07T12:10:49.268Z,96829.50
2023-03-07T12:13:31.875Z,96822.50
2023-03-07T12:16:27.546Z,96820.97
2023-03-07T12:18:59.894Z,96812.81
2023-03-07T12:21:49.456Z,96810.13
2023-03-07T12:24:23.479Z,96808.66
2023-03-07T12:29:54.690Z,96803.19
2023-03-07T12:32:25.829Z,96797.16
2023-03-07T12:38:05.548Z,96774.09
2023-03-07T12:40:53.321Z,96769.72
2023-03-07T12:43:45.878Z,96765.13
2023-03-07T12:46:23.381Z,96760.50
2023-03-07T12:49:21.856Z,96748.19
2023-03-07T12:51:58.198Z,96739.66
2023-03-07T12:54:39.242Z,96742.09
2023-03-07T12:57:16.315Z,96744.38
2023-03-07T12:59:44.264Z,96735.47
2023-03-07T13:02:20.336Z,96738.19
2023-03-07T13:04:46.913Z,96731.59
2023-03-07T13:07:18.796Z,96718.78
2023-03-07T13:12:23.993Z,96715.66
2023-03-07T13:17:30.291Z,96710.25
2023-03-07T13:19:58.990Z,96710.63
2023-03-07T13:25:27.197Z,96711.00
2023-03-07T13:27:56.689Z,96708.63
2023-03-07T13:30:27.175Z,96710.22
2023-03-07T13:32:56.453Z,96712.19
2023-03-07T13:35:29.242Z,96712.53
2023-03-07T13:38:22.103Z,96711.75
2023-03-07T13:40:54.668Z,96708.63
2023-03-07T13:43:25.572Z,96706.28
2023-03-07T13:45:56.492Z,96704.75
2023-03-07T13:48:29.070Z,96704.75
2023-03-07T13:50:55.620Z,96711.72
2023-03-07T13:59:20.684Z,96703.91
2023-03-07T14:02:03.343Z,96704.69
2023-03-07T14:04:41.077Z,96713.22
2023-03-07T14:07:17.684Z,96713.94
2023-03-07T14:09:48.193Z,96705.84
2023-03-07T14:12:30.246Z,96708.53
2023-03-07T14:15:30.732Z,96712.44
2023-03-07T14:18:27.816Z,96721.31
2023-03-07T14:20:59.722Z,96726.00
2023-03-07T14:23:48.038Z,96728.69
2023-03-07T14:29:00.252Z,96721.72
2023-03-07T14:31:30.542Z,96723.25
2023-03-07T14:33:58.114Z,96722.47
2023-03-07T14:36:32.524Z,96735.69
2023-03-07T14:39:04.372Z,96733.75
2023-03-07T14:41:39.578Z,96735.69
2023-03-07T14:44:35.002Z,96728.00
2023-03-07T14:47:35.391Z,96731.16
2023-03-07T14:50:26.089Z,96730.41
2023-03-07T14:53:02.488Z,96728.44
2023-03-07T14:55:36.244Z,96720.69
2023-03-07T14:58:03.456Z,96728.03
2023-03-07T15:00:30.640Z,96715.63
2023-03-07T15:03:01.836Z,96709.06
2023-03-07T15:05:31.926Z,96714.50
2023-03-07T15:10:34.171Z,96706.34
2023-03-07T15:13:03.090Z,96707.13
2023-03-07T15:15:48.317Z,96712.59
2023-03-07T15:18:35.052Z,96709.44
2023-03-07T15:21:04.223Z,96709.84
2023-03-07T15:23:31.471Z,96704.03
2023-03-07T15:26:07.030Z,96713.34
2023-03-07T15:28:40.485Z,96705.22
2023-03-07T15:31:08.860Z,96705.28
2023-03-07T15:33:35.969Z,96703.31
2023-03-07T15:36:11.301Z,96697.50
2023-03-07T15:38:52.278Z,96704.09
2023-03-07T15:41:31.698Z,96701.75
2023-03-07T15:44:04.735Z,96698.28
2023-03-07T15:46:33.052Z,96700.97
2023-03-07T15:48:59.750Z,96705.22
2023-03-07T15:51:35.366Z,96714.16
2023-03-07T15:54:29.404Z,96704.44
2023-03-07T15:56:59.576Z,96711.06
2023-03-07T16:02:32.577Z,96697.91
2023-03-07T16:05:25.374Z,96703.34
2023-03-07T16:07:56.521Z,96695.16
2023-03-07T16:10:28.249Z,96702.16
2023-03-07T16:12:55.235Z,96706.03
2023-03-07T16:15:23.885Z,96708.72
2023-03-07T16:17:55.126Z,96707.16
2023-03-07T16:20:26.864Z,96713.75
2023-03-07T16:22:53.748Z,96715.31
2023-03-07T16:25:21.162Z,96713.72
2023-03-07T16:27:54.619Z,96721.84
2023-03-07T16:30:23.833Z,96727.22
2023-03-07T16:32:50.782Z,96722.97
2023-03-07T16:35:24.237Z,96721.84
2023-03-07T16:37:51.746Z,96724.91
2023-03-07T16:40:20.346Z,96715.19
2023-03-07T16:42:48.677Z,96729.94
2023-03-07T16:45:33.334Z,96727.19
2023-03-07T16:48:02.702Z,96721.00
2023-03-07T16:50:32.062Z,96732.97
2023-03-07T16:52:58.678Z,96734.16
2023-03-07T16:55:25.811Z,96733.69
2023-03-07T16:57:57.542Z,96736.06
2023-03-07T17:00:26.937Z,96741.06
2023-03-07T17:02:55.314Z,96742.56
2023-03-07T17:05:25.678Z,96753.75
2023-03-07T17:07:54.122Z,96752.97
2023-03-07T17:10:21.394Z,96749.06
2023-03-07T17:12:50.249Z,96745.97
2023-03-07T17:15:21.874Z,96753.31
2023-03-07T17:17:48.707Z,96747.06
2023-03-07T17:20:18.205Z,96753.91
2023-03-07T17:22:44.959Z,96758.81
2023-03-07T17:25:12.530Z,96751.81
2023-03-07T17:27:43.305Z,96758.31
2023-03-07T17:30:17.739Z,96762.50
2023-03-07T17:32:44.403Z,96772.53
2023-03-07T17:35:11.787Z,96760.13
2023-03-07T17:37:41.130Z,96763.53
2023-03-07T17:42:51.177Z,96785.53
2023-03-07T17:45:18.566Z,96787.44
2023-03-07T17:47:45.220Z,96779.38
2023-03-07T17:50:12.528Z,96784.00
2023-03-07T17:52:39.224Z,96784.75
2023-03-07T17:55:10.020Z,96792.47
2023-03-07T17:57:36.614Z,96796.25
2023-03-07T18:00:07.075Z,96798.94
2023-03-07T18:02:35.248Z,96808.59
2023-03-07T18:05:01.872Z,96810.16
2023-03-07T18:07:28.639Z,96812.41
2023-03-07T18:10:07.286Z,96818.25
2023-03-07T18:15:16.098Z,96820.19
2023-03-07T18:17:48.321Z,96827.13
2023-03-07T18:20:21.758Z,96833.03
2023-03-07T18:22:48.982Z,96827.13
2023-03-07T18:25:17.213Z,96829.00
2023-03-07T18:27:44.838Z,96808.50
2023-03-07T18:30:12.168Z,96820.97
2023-03-07T18:32:39.070Z,96822.06
2023-03-07T18:35:06.694Z,96812.31
2023-03-07T18:37:33.902Z,96821.69
2023-03-07T18:40:00.659Z,96818.69
2023-03-07T18:42:27.622Z,96822.91
2023-03-07T18:44:54.660Z,96823.66
2023-03-07T18:47:21.321Z,96823.69
2023-03-07T18:49:53.758Z,96828.81
2023-03-07T18:52:20.335Z,96829.53
2023-03-07T18:57:19.646Z,96824.88
2023-03-07T18:59:46.219Z,96831.13
2023-03-07T19:02:12.847Z,96835.75
2023-03-07T19:04:39.479Z,96831.97
2023-03-07T19:07:06.123Z,96840.56
2023-03-07T19:09:32.751Z,96841.34
2023-03-07T19:11:59.387Z,96844.41
2023-03-07T19:16:59.654Z,96845.06
2023-03-07T19:19:26.247Z,96847.78
2023-03-07T19:21:53.057Z,96848.94
2023-03-07T19:24:19.725Z,96850.53
2023-03-07T19:26:46.574Z,96845.88
2023-03-07T19:29:14.108Z,96849.34
2023-03-07T19:31:44.031Z,96844.25
2023-03-07T19:34:10.743Z,96850.53
2023-03-07T19:36:37.604Z,96853.28
2023-03-07T19:39:04.951Z,96851.72
2023-03-07T19:44:06.562Z,96850.50
2023-03-07T19:46:33.157Z,96859.78
2023-03-07T19:48:59.731Z,96865.91
2023-03-07T19:51:26.599Z,96871.38
2023-03-07T19:53:57.204Z,96864.13
2023-03-07T19:56:29.432Z,96865.28
2023-03-07T19:58:58.125Z,96871.06
2023-03-07T20:01:25.105Z,96869.53
2023-03-07T20:03:52.015Z,96869.44
2023-03-07T20:06:21.595Z,96869.53
2023-03-07T20:08:49.118Z,96878.44
2023-03-07T20:11:21.853Z,96876.06
2023-03-07T20:13:49.235Z,96878.69
2023-03-07T20:16:18.394Z,96875.69
2023-03-07T20:18:50.451Z,96881.00
2023-03-07T20:21:17.733Z,96877.09
2023-03-07T20:23:46.377Z,96867.84
2023-03-07T20:26:19.077Z,96864.72
2023-03-07T20:28:46.253Z,96863.53
2023-03-07T20:31:13.358Z,96857.72
2023-03-07T20:33:45.562Z,96864.34
2023-03-07T20:36:22.589Z,96868.94
2023-03-07T20:39:00.287Z,96866.25
2023-03-07T20:41:29.596Z,96875.19
2023-03-07T20:44:06.186Z,96877.06
2023-03-07T20:46:33.994Z,96884.44
2023-03-07T20:49:02.333Z,96887.50
2023-03-07T20:51:31.577Z,96888.66
2023-03-07T20:54:00.479Z,96896.78
2023-03-07T20:56:29.614Z,96900.28
2023-03-07T20:58:57.664Z,96903.41
2023-03-07T21:01:26.028Z,96907.66
2023-03-07T21:03:53.923Z,96903.75
2023-03-07T21:06:20.844Z,96904.50
2023-03-07T21:08:50.501Z,96906.88
2023-03-07T21:11:20.108Z,96899.50
2023-03-07T21:13:49.409Z,96903.41
2023-03-07T21:18:49.248Z,96892.22
2023-03-07T21:21:18.824Z,96904.94
2023-03-07T21:23:45.925Z,96899.53
2023-03-07T21:26:21.556Z,96908.44
2023-03-07T21:28:50.616Z,96912.41
2023-03-07T21:31:23.302Z,96910.75
2023-03-07T21:33:58.204Z,96916.97
2023-03-07T21:36:27.294Z,96919.31
2023-03-07T21:38:54.519Z,96924.69
2023-03-07T21:41:27.591Z,96934.72
2023-03-07T21:43:55.668Z,96937.78
2023-03-07T21:46:22.784Z,96941.56
2023-03-07T21:48:49.507Z,96939.28
2023-03-07T21:51:16.811Z,96939.34
2023-03-07T21:53:43.409Z,96949.34
2023-03-07T21:58:47.056Z,96956.06
2023-03-07T22:01:20.753Z,96968.84
2023-03-07T22:03:47.577Z,96969.22
2023-03-07T22:06:16.346Z,96962.59
2023-03-07T22:08:43.091Z,96961.84
2023-03-07T22:11:12.388Z,96960.00
2023-03-07T22:13:40.826Z,96970.06
2023-03-07T22:16:13.268Z,96962.25
2023-03-07T22:18:40.032Z,96969.09
2023-03-07T22:21:09.118Z,96965.72
2023-03-07T22:23:36.441Z,96968.78
2023-03-07T22:26:07.817Z,96961.03
2023-03-07T22:28:34.734Z,96965.31
2023-03-07T22:31:09.582Z,96965.63
2023-03-07T22:33:36.314Z,96969.09
2023-03-07T22:38:44.876Z,96978.47
2023-03-07T22:41:17.035Z,96973.28
2023-03-07T22:43:43.956Z,96972.56
2023-03-07T22:46:10.985Z,96975.56
2023-03-07T22:48:38.452Z,96975.13
2023-03-07T22:51:05.652Z,96975.50
2023-03-07T22:53:33.651Z,96978.97
2023-03-07T22:56:00.905Z,96974.81
2023-03-07T22:58:28.759Z,96977.53
2023-03-07T23:00:55.830Z,96972.44
2023-03-07T23:03:23.556Z,96970.84
2023-03-07T23:05:50.736Z,96964.56
2023-03-07T23:11:10.324Z,96962.16
2023-03-07T23:13:37.248Z,96964.53
2023-03-07T23:16:09.906Z,96978.84
2023-03-07T23:21:14.910Z,96979.56
2023-03-07T23:26:20.160Z,96972.22
2023-03-07T23:28:47.427Z,96977.25
2023-03-07T23:31:23.105Z,96987.28
2023-03-07T23:36:29.727Z,96981.13
2023-03-07T23:38:58.164Z,96982.16
2023-03-07T23:41:25.554Z,96981.41
2023-03-07T23:43:54.099Z,96991.53
2023-03-07T23:46:21.403Z,96989.25
2023-03-07T23:48:48.020Z,96977.56
2023-03-07T23:51:15.058Z,96987.94
2023-03-07T23:53:41.701Z,96987.53
2023-03-07T23:56:09.957Z,96986.22
2023-03-07T23:58:36.986Z,96990.50
